NFFN/NAN METAR and TAF weather

Enter ICAO airport designator
Station Type Date Time Source
NFFN METAR 2019/06/18 12:00 UTC NOAA

NFFN 181200Z 09004KT 9999 FEW030 22/20 Q1013 NOSIG


Station Type Date Time Source
NFFN Decoded METAR 2019/06/18 12:00 UTC NOAA

Nandi, Fiji (NFFN) 17-45S 177-27E 18M
Jun 18, 2019 - 08:00 AM EDT / 2019.06.18 1200 UTC
Wind: from the E (090 degrees) at 5 MPH (4 KT):0
Visibility: greater than 7 mile(s):0
Sky conditions: mostly clear
Temperature: 71 F (22 C)
Dew Point: 68 F (20 C)
Relative Humidity: 88%
Pressure (altimeter): 29.91 in. Hg (1013 hPa)
ob: NFFN 181200Z 09004KT 9999 FEW030 22/20 Q1013 NOSIG
cycle: 12

Station Type Date Time Source
NFFN TAF 2019/06/18 12:06 UTC NOAA

TAF TAF NFFN 181104Z 1812/1912 09006KT 9999 FEW028
BECMG 1821/1823 29010KT
BECMG 1904/1906 10006KT

Example: see airport list